Time;durP1;ratioP1;P1;durP2;ratioP2;P2;SDS_P1;SDS_P2;PMS_P1;PMS_P2;Temp;Humidity;BMP_temperature;BMP_pressure;BME280_temperature;BME280_humidity;BME280_pressure;Samples;Min_cycle;Max_cycle;Signal;HPM_P1;HPM_P2
2022/06/09 00:00:18;;;;;;;22.35;4.88;;;;;;;13.51;94.40;100737.03;5013275;28;20036;-71
2022/06/09 00:02:48;;;;;;;14.45;4.68;;;;;;;13.49;95.20;100730.94;5011068;28;20397;-71
2022/06/09 00:05:14;;;;;;;;;;;;;;;13.61;93.98;100737.16;4997046;28;20057;-71
2022/06/09 00:07:40;;;;;;;18.35;4.80;;;;;;;13.50;94.29;100743.34;5014025;28;20353;-71
2022/06/09 00:10:12;;;;;;;19.58;4.82;;;;;;;13.42;94.83;100743.09;5031951;28;20032;-71
2022/06/09 00:12:38;;;;;;;16.17;5.43;;;;;;;13.45;95.25;100750.03;5028735;28;20022;-71
2022/06/09 00:15:07;;;;;;;18.42;5.40;;;;;;;13.42;95.47;100758.28;5013437;28;20021;-71
2022/06/09 00:17:32;;;;;;;13.70;4.77;;;;;;;13.44;95.99;100750.97;5013810;28;20773;-70
2022/06/09 00:20:00;;;;;;;17.85;4.68;;;;;;;13.44;95.58;100754.47;5013534;28;20045;-70
2022/06/09 00:22:26;;;;;;;17.13;5.30;;;;;;;13.49;95.84;100752.31;5014040;28;20144;-71
2022/06/09 00:24:54;;;;;;;16.13;4.60;;;;;;;13.49;95.26;100755.00;5011804;28;20022;-71
2022/06/09 00:27:20;;;;;;;16.88;5.15;;;;;;;13.49;95.98;100749.66;5012781;28;20045;-71
2022/06/09 00:29:45;;;;;;;22.08;5.25;;;;;;;13.50;95.34;100755.84;5028412;28;20103;-71
2022/06/09 00:32:11;;;;;;;17.00;5.85;;;;;;;13.50;95.86;100750.50;5011687;28;20564;-71
2022/06/09 00:34:36;;;;;;;15.23;5.28;;;;;;;13.49;95.35;100756.81;5030715;28;20101;-70
2022/06/09 00:37:02;;;;;;;15.57;4.78;;;;;;;13.53;96.29;100758.28;5012744;28;20045;-71
2022/06/09 00:39:27;;;;;;;17.52;4.93;;;;;;;13.49;95.58;100756.81;5012833;28;20028;-71
2022/06/09 00:41:52;;;;;;;20.15;6.00;;;;;;;13.49;95.27;100757.66;4992812;28;20030;-71
2022/06/09 00:44:25;;;;;;;19.02;5.50;;;;;;;13.48;95.71;100757.81;4977672;28;20054;-71
2022/06/09 00:47:01;;;;;;;14.82;5.30;;;;;;;13.43;95.97;100758.13;5030721;28;20025;-71
2022/06/09 00:49:32;;;;;;;15.73;4.70;;;;;;;13.48;94.61;100758.66;5030240;28;20437;-71
2022/06/09 00:52:01;;;;;;;18.75;5.18;;;;;;;13.38;95.83;100760.31;5027980;28;20053;-71
2022/06/09 00:54:32;;;;;;;15.02;5.15;;;;;;;13.27;95.94;100758.47;5031251;28;20436;-70
2022/06/09 00:57:05;;;;;;;20.27;5.68;;;;;;;13.32;96.01;100774.13;5029060;28;20366;-70
2022/06/09 00:59:34;;;;;;;14.15;4.85;;;;;;;13.29;96.11;100769.03;5029508;28;20061;-71
2022/06/09 01:02:01;;;;;;;20.13;5.70;;;;;;;13.27;95.61;100766.47;5030152;28;20045;-71
2022/06/09 01:04:30;;;;;;;19.70;5.53;;;;;;;13.25;94.76;100765.72;5028209;28;20130;-71
2022/06/09 01:07:10;;;;;;;19.73;5.80;;;;;;;13.16;96.38;100764.56;5030303;28;20037;-71
2022/06/09 01:09:36;;;;;;;16.80;5.68;;;;;;;13.10;96.43;100757.03;5029862;28;20028;-71
2022/06/09 01:12:20;;;;;;;22.85;6.40;;;;;;;13.15;96.71;100770.06;5011954;28;20484;-71
2022/06/09 01:14:49;;;;;;;21.35;5.63;;;;;;;13.20;96.84;100773.19;5029684;28;20024;-71
2022/06/09 01:17:29;;;;;;;22.83;7.05;;;;;;;13.25;96.81;100767.53;5029690;28;20025;-71
2022/06/09 01:20:46;;;;;;;18.27;5.85;;;;;;;13.36;96.17;100776.47;5012195;28;20050;-70
2022/06/09 01:23:39;;;;;;;24.48;6.60;;;;;;;13.26;96.74;100783.44;4949918;29;20039;-71
2022/06/09 01:26:29;;;;;;;14.77;6.00;;;;;;;13.23;96.16;100775.63;5029751;28;20033;-71
2022/06/09 01:29:11;;;;;;;19.00;6.35;;;;;;;13.22;96.78;100784.63;5030629;28;20037;-71
2022/06/09 01:31:48;;;;;;;20.75;6.38;;;;;;;13.25;96.75;100783.56;5029339;28;20060;-71
2022/06/09 01:34:28;;;;;;;21.05;6.35;;;;;;;13.23;96.22;100774.78;5030959;28;20028;-71
2022/06/09 01:37:42;;;;;;;24.95;7.05;;;;;;;13.26;95.95;100785.28;5031841;28;20033;-71
2022/06/09 01:40:12;;;;;;;22.23;6.75;;;;;;;13.20;96.30;100786.56;5027850;28;20412;-71
2022/06/09 01:42:44;;;;;;;25.25;7.13;;;;;;;13.17;96.79;100792.97;5015077;28;20548;-70
2022/06/09 01:46:05;;;;;;;21.45;6.38;;;;;;;13.26;96.40;100786.13;5032269;28;20372;-72
2022/06/09 01:48:36;;;;;;;22.25;7.35;;;;;;;13.21;97.13;100793.63;5008981;28;20418;-70
2022/06/09 01:51:09;;;;;;;23.65;7.43;;;;;;;13.24;97.45;100796.06;5031792;28;20388;-72
2022/06/09 01:53:46;;;;;;;28.33;7.30;;;;;;;13.25;96.96;100802.25;5015849;28;20021;-71
2022/06/09 01:56:27;;;;;;;21.70;7.00;;;;;;;13.22;96.85;100805.16;5031522;28;20463;-71
2022/06/09 01:58:58;;;;;;;24.13;6.72;;;;;;;13.19;96.97;100806.22;5014896;28;20021;-71
2022/06/09 02:01:30;;;;;;;24.30;7.25;;;;;;;13.18;97.28;100808.06;5030823;28;20040;-71
2022/06/09 02:03:59;;;;;;;27.00;7.32;;;;;;;13.11;96.68;100796.09;5015837;28;20032;-71
2022/06/09 02:06:26;;;;;;;26.50;8.05;;;;;;;13.11;96.79;100798.78;5031755;28;20476;-71
2022/06/09 02:08:53;;;;;;;21.95;7.82;;;;;;;13.05;96.77;100791.22;5033964;28;20496;-71
2022/06/09 02:11:18;;;;;;;26.05;7.55;;;;;;;13.10;96.89;100810.44;5034671;28;20021;-71
2022/06/09 02:13:50;;;;;;;21.85;7.35;;;;;;;13.12;97.37;100815.69;5014124;28;20029;-70
2022/06/09 02:16:21;;;;;;;26.25;7.85;;;;;;;13.10;96.91;100818.44;5034213;28;20530;-70
2022/06/09 02:18:50;;;;;;;26.50;8.43;;;;;;;13.02;97.22;100815.47;5030604;28;20033;-71
2022/06/09 02:21:22;;;;;;;21.35;7.78;;;;;;;13.03;97.60;100809.19;5034350;28;20041;-71
2022/06/09 02:23:48;;;;;;;24.45;7.88;;;;;;;13.05;97.60;100811.75;5034302;28;20025;-71
2022/06/09 02:26:16;;;;;;;20.95;7.25;;;;;;;13.02;97.26;100820.81;5033826;28;20424;-71
2022/06/09 02:28:42;;;;;;;28.85;8.02;;;;;;;12.97;98.02;100823.00;5014730;28;20017;-72
2022/06/09 02:31:07;;;;;;;28.70;8.23;;;;;;;12.98;98.21;100821.19;5014713;28;20032;-71
2022/06/09 02:33:34;;;;;;;26.00;8.43;;;;;;;12.95;97.69;100823.09;5014559;28;20057;-71
2022/06/09 02:36:01;;;;;;;23.25;8.10;;;;;;;13.00;97.10;100821.91;5031895;28;20033;-71
2022/06/09 02:38:27;;;;;;;26.77;8.13;;;;;;;12.89;97.42;100831.56;5033458;28;20116;-71
2022/06/09 02:40:54;;;;;;;25.15;8.63;;;;;;;12.89;97.91;100823.56;5032042;28;20034;-71
2022/06/09 02:43:20;;;;;;;28.45;9.98;;;;;;;12.90;97.97;100832.41;5011438;28;20116;-70
2022/06/09 02:45:46;;;;;;;26.13;8.68;;;;;;;12.91;97.92;100826.09;5032068;28;20076;-71
2022/06/09 02:48:14;;;;;;;24.92;8.38;;;;;;;12.88;98.05;100831.66;5033136;28;20025;-71
2022/06/09 02:50:42;;;;;;;26.48;8.38;;;;;;;12.87;97.80;100838.81;5033335;28;20048;-70
2022/06/09 02:53:08;;;;;;;28.33;8.48;;;;;;;12.83;97.74;100840.03;5011636;28;20034;-71
2022/06/09 02:55:35;;;;;;;21.55;8.70;;;;;;;12.82;97.25;100840.97;5030935;28;20112;-71
2022/06/09 02:58:01;;;;;;;22.40;8.60;;;;;;;12.80;97.70;100845.59;5014394;28;20029;-71
2022/06/09 03:00:27;;;;;;;28.42;8.63;;;;;;;12.84;97.68;100840.88;5031190;28;20075;-71
2022/06/09 03:03:00;;;;;;;27.30;9.30;;;;;;;12.78;97.42;100847.50;5031393;28;20416;-70
2022/06/09 03:05:27;;;;;;;23.45;8.30;;;;;;;12.73;97.37;100847.84;5032080;28;20029;-71
2022/06/09 03:07:53;;;;;;;27.25;9.63;;;;;;;12.77;98.16;100852.97;5014597;28;20026;-71
2022/06/09 03:10:18;;;;;;;33.92;9.77;;;;;;;12.80;97.68;100868.75;5032862;28;20033;-71
2022/06/09 03:12:44;;;;;;;22.13;9.18;;;;;;;12.77;97.37;100867.16;5012936;28;20026;-71
2022/06/09 03:15:14;;;;;;;29.25;9.70;;;;;;;12.76;97.18;100876.09;5032755;28;20032;-71
2022/06/09 03:17:39;;;;;;;;;;;;;;;12.85;96.68;100883.47;5013648;28;20558;-71
2022/06/09 03:20:11;;;;;;;28.17;10.02;;;;;;;12.71;97.44;100875.59;5030072;28;19924;-70
2022/06/09 03:22:39;;;;;;;36.70;9.27;;;;;;;12.76;97.75;100878.78;5032708;28;20037;-71
2022/06/09 03:25:05;;;;;;;28.35;10.48;;;;;;;12.74;97.75;100888.72;4997690;28;20036;-71
2022/06/09 03:27:33;;;;;;;35.72;10.32;;;;;;;12.73;97.59;100892.34;5030460;28;20041;-71
2022/06/09 03:30:01;;;;;;;29.05;9.50;;;;;;;12.73;97.97;100890.56;5030962;28;20083;-71
2022/06/09 03:32:27;;;;;;;25.95;9.52;;;;;;;12.70;97.11;100893.41;5032320;28;20017;-70
2022/06/09 03:34:53;;;;;;;29.23;9.93;;;;;;;12.76;97.40;100896.59;5032520;28;20033;-71
2022/06/09 03:37:22;;;;;;;24.75;8.60;;;;;;;12.67;97.35;100896.28;5014404;28;20047;-71
2022/06/09 03:39:48;;;;;;;27.05;9.25;;;;;;;12.67;97.16;100900.78;5031892;28;20365;-71
2022/06/09 03:42:13;;;;;;;25.30;8.90;;;;;;;12.63;97.81;100913.50;4997211;28;20029;-71
2022/06/09 03:44:39;;;;;;;28.90;9.40;;;;;;;12.61;97.67;100904.75;4997735;28;20083;-71
2022/06/09 03:47:05;;;;;;;30.98;10.55;;;;;;;12.62;97.27;100925.16;5012749;28;20053;-71
2022/06/09 03:49:31;;;;;;;27.35;10.38;;;;;;;12.63;97.42;100921.50;5031832;28;20079;-71
2022/06/09 03:51:57;;;;;;;27.83;9.68;;;;;;;12.63;97.66;100921.50;5013333;28;20032;-71
2022/06/09 03:54:22;;;;;;;24.55;9.32;;;;;;;12.67;97.79;100925.66;4996298;28;20037;-71
2022/06/09 03:56:48;;;;;;;23.25;9.45;;;;;;;12.68;97.58;100931.88;5030456;28;20112;-71
2022/06/09 03:59:13;;;;;;;26.17;10.65;;;;;;;12.66;98.16;100931.97;5013498;28;20128;-71
2022/06/09 04:01:39;;;;;;;30.10;10.00;;;;;;;12.66;97.25;100934.63;5014193;28;20477;-71
2022/06/09 04:04:05;;;;;;;29.80;9.63;;;;;;;12.68;97.44;100940.72;5031692;28;20041;-71
2022/06/09 04:06:31;;;;;;;31.00;10.35;;;;;;;12.66;97.26;100937.28;5012117;28;20021;-71
2022/06/09 04:08:57;;;;;;;24.45;9.80;;;;;;;12.67;96.85;100946.16;5030668;28;20060;-70
2022/06/09 04:11:23;;;;;;;28.65;10.02;;;;;;;12.65;97.09;100953.44;5031382;28;20053;-71
2022/06/09 04:13:49;;;;;;;37.33;10.55;;;;;;;12.67;97.72;100957.66;4996056;28;20453;-71
2022/06/09 04:16:21;;;;;;;23.98;9.35;;;;;;;12.72;97.76;100947.53;5030015;28;20104;-71
2022/06/09 04:18:48;;;;;;;28.10;9.40;;;;;;;12.71;98.49;100955.66;5030649;28;20068;-71
2022/06/09 04:21:16;;;;;;;27.83;9.68;;;;;;;12.69;97.34;100960.25;5031551;28;20049;-71
2022/06/09 04:23:42;;;;;;;32.22;10.10;;;;;;;12.64;97.12;100959.72;5029590;28;20033;-71
2022/06/09 04:26:14;;;;;;;29.77;10.63;;;;;;;12.65;97.43;100958.78;5031457;28;20041;-71
2022/06/09 04:28:43;;;;;;;33.67;10.75;;;;;;;12.69;97.55;100963.75;5027093;28;20392;-71
2022/06/09 04:31:09;;;;;;;24.02;9.75;;;;;;;12.68;97.51;100964.75;4996589;28;20044;-71
2022/06/09 04:33:37;;;;;;;29.67;11.02;;;;;;;12.71;97.21;100974.34;5030641;28;20393;-71
2022/06/09 04:36:03;;;;;;;25.58;9.63;;;;;;;12.74;97.20;100971.47;5031513;28;20033;-71
2022/06/09 04:38:29;;;;;;;24.48;10.32;;;;;;;12.72;97.33;100974.22;5030667;28;20033;-71
2022/06/09 04:40:55;;;;;;;28.10;10.52;;;;;;;12.77;97.67;100979.25;5010911;28;20055;-72
2022/06/09 04:43:21;;;;;;;26.30;9.52;;;;;;;12.77;97.41;100976.59;5013562;28;20067;-72
2022/06/09 04:45:47;;;;;;;34.78;11.02;;;;;;;12.79;97.83;100987.13;5013442;28;20037;-71
2022/06/09 04:48:12;;;;;;;29.08;9.77;;;;;;;12.85;97.79;100984.91;5010704;28;20036;-71
2022/06/09 04:50:40;;;;;;;25.88;9.73;;;;;;;12.84;97.22;100985.84;5030898;28;20037;-71
2022/06/09 04:53:07;;;;;;;25.90;10.80;;;;;;;12.90;97.67;100984.56;5030520;28;20033;-72
2022/06/09 04:55:33;;;;;;;31.50;11.27;;;;;;;12.91;98.22;100991.59;5012357;28;20477;-72
2022/06/09 04:57:59;;;;;;;38.65;11.32;;;;;;;12.88;98.08;100990.03;5010629;28;20477;-71
2022/06/09 05:00:26;;;;;;;27.98;10.77;;;;;;;12.89;97.47;100996.22;5030526;28;20037;-71
2022/06/09 05:02:52;;;;;;;31.17;9.88;;;;;;;12.89;97.36;100999.75;4993678;28;20029;-71
2022/06/09 05:05:29;;;;;;;33.53;11.13;;;;;;;12.91;98.00;101005.84;5013822;28;20477;-71
2022/06/09 05:07:55;;;;;;;28.08;10.13;;;;;;;12.93;98.37;101005.72;5030334;28;20492;-71
2022/06/09 05:10:23;;;;;;;28.65;10.40;;;;;;;12.97;98.71;101012.56;4995770;28;20136;-71
2022/06/09 05:12:49;;;;;;;32.38;10.95;;;;;;;13.04;98.28;101013.81;5012029;28;20057;-71
2022/06/09 05:15:16;;;;;;;30.75;10.60;;;;;;;13.21;98.71;101025.97;4996147;28;20457;-71
2022/06/09 05:17:45;;;;;;;29.35;11.35;;;;;;;13.31;99.24;101027.06;5027108;28;20025;-71
2022/06/09 05:20:19;;;;;;;30.73;11.00;;;;;;;13.43;99.64;101040.50;4995725;28;20049;-71
2022/06/09 05:22:45;;;;;;;34.83;11.50;;;;;;;13.57;99.49;101040.34;5012333;28;20404;-71
2022/06/09 05:25:11;;;;;;;30.25;10.65;;;;;;;13.70;98.74;101037.63;5011345;28;20057;-71
2022/06/09 05:27:37;;;;;;;30.05;10.63;;;;;;;13.73;98.53;101032.91;5030354;28;20524;-71
2022/06/09 05:30:05;;;;;;;25.52;10.13;;;;;;;13.74;98.69;101048.00;5030247;28;20052;-71
2022/06/09 05:32:33;;;;;;;22.20;9.82;;;;;;;13.76;98.48;101050.56;5029916;28;20025;-71
2022/06/09 05:35:01;;;;;;;25.95;10.55;;;;;;;13.70;98.28;101057.19;5029516;28;20041;-71
2022/06/09 05:44:50;;;;;;;27.63;9.65;;;;;;;13.74;98.32;101069.38;5010773;28;20034;-70
2022/06/09 05:45:47;;;;;;;28.25;9.77;;;;;;;13.62;98.31;101072.97;5027904;28;20443;-71
2022/06/09 05:48:15;;;;;;;27.00;9.35;;;;;;;13.54;98.26;101078.00;5011034;28;20120;-71
2022/06/09 05:50:42;;;;;;;27.85;10.45;;;;;;;13.51;97.16;101076.41;5010307;28;20031;-72
2022/06/09 05:53:09;;;;;;;25.10;10.32;;;;;;;13.60;98.19;101089.09;5010229;28;20517;-71
2022/06/09 05:55:37;;;;;;;34.33;10.85;;;;;;;13.68;98.00;101083.19;5010768;28;20026;-70
2022/06/09 05:58:02;;;;;;;23.63;9.30;;;;;;;13.72;97.93;101100.72;5030074;28;20029;-70
2022/06/09 06:00:30;;;;;;;30.35;10.60;;;;;;;13.80;98.26;101090.31;4978421;28;20037;-71
2022/06/09 06:02:57;;;;;;;32.30;10.98;;;;;;;14.01;98.83;101101.28;5030636;28;20025;-71
2022/06/09 06:08:07;;;;;;;21.98;10.02;;;;;;;14.24;96.17;101118.31;5025127;28;20560;-71
2022/06/09 06:10:35;;;;;;;19.45;9.35;;;;;;;14.26;96.47;101115.50;4980395;28;20112;-70
2022/06/09 06:13:01;;;;;;;26.45;9.73;;;;;;;14.23;96.66;101113.91;5009697;28;20057;-71
2022/06/09 06:15:26;;;;;;;27.02;9.85;;;;;;;14.27;95.41;101118.06;5028013;28;20032;-70
2022/06/09 06:17:54;;;;;;;27.50;9.68;;;;;;;14.24;96.71;101120.97;5028004;28;20358;-71
2022/06/09 06:20:20;;;;;;;26.13;9.80;;;;;;;14.30;96.92;101122.34;5031398;28;20041;-71
2022/06/09 06:22:45;;;;;;;21.50;8.98;;;;;;;14.36;96.71;101140.63;5033446;28;20088;-71
2022/06/09 06:25:12;;;;;;;24.42;9.60;;;;;;;14.44;97.32;101138.22;5033549;28;20029;-71
2022/06/09 06:27:39;;;;;;;24.08;9.80;;;;;;;14.41;96.22;101140.25;5030972;28;20029;-70
2022/06/09 06:30:06;;;;;;;25.73;8.85;;;;;;;14.41;96.25;101135.78;5010745;28;20038;-71
2022/06/09 06:32:34;;;;;;;27.05;9.95;;;;;;;14.46;97.17;101135.44;5030332;28;20103;-70
2022/06/09 06:35:01;;;;;;;24.33;9.25;;;;;;;14.46;96.94;101138.94;5032875;28;21073;-71
2022/06/09 06:37:26;;;;;;;19.75;8.45;;;;;;;14.53;96.51;101158.13;5033185;28;20112;-71
2022/06/09 06:39:52;;;;;;;23.10;8.38;;;;;;;14.57;96.03;101158.75;5029861;28;20116;-71
2022/06/09 06:42:20;;;;;;;25.50;8.88;;;;;;;14.61;95.66;101160.22;4997477;28;20037;-71
2022/06/09 06:44:49;;;;;;;21.35;8.07;;;;;;;14.62;96.27;101165.47;5033263;28;20067;-70
2022/06/09 06:47:15;;;;;;;23.27;7.13;;;;;;;14.64;94.83;101168.03;5033946;28;20053;-71
2022/06/09 06:49:42;;;;;;;19.05;8.45;;;;;;;14.62;95.72;101162.78;5013279;28;20026;-71
2022/06/09 06:52:10;;;;;;;19.85;8.43;;;;;;;14.61;95.06;101178.97;5033789;28;20022;-72
2022/06/09 06:54:35;;;;;;;26.02;8.18;;;;;;;14.65;95.88;101175.94;5014782;28;20029;-72
2022/06/09 06:57:05;;;;;;;19.10;8.30;;;;;;;14.67;95.13;101179.34;4998260;28;20408;-72
2022/06/09 06:59:32;;;;;;;20.25;8.52;;;;;;;14.65;95.14;101189.34;5033025;28;20064;-72
2022/06/09 07:01:57;;;;;;;16.95;7.93;;;;;;;14.67;94.52;101187.38;4998832;28;20120;-71
2022/06/09 07:04:25;;;;;;;18.88;7.75;;;;;;;14.65;93.66;101191.16;5009359;28;20574;-72
2022/06/09 07:06:53;;;;;;;20.40;8.30;;;;;;;14.58;94.09;101188.06;5005592;28;20171;-71
2022/06/09 07:09:19;;;;;;;23.80;9.02;;;;;;;14.62;96.15;101184.22;5027973;28;20074;-72
2022/06/09 07:11:45;;;;;;;19.90;8.18;;;;;;;14.63;94.69;101196.63;5032630;28;20427;-71
2022/06/09 07:14:12;;;;;;;19.15;8.55;;;;;;;14.66;94.76;101199.06;5013703;28;20025;-72
2022/06/09 07:16:38;;;;;;;18.75;8.27;;;;;;;14.75;95.55;101216.28;5032449;28;20481;-72
2022/06/09 07:19:04;;;;;;;19.45;8.82;;;;;;;14.81;96.60;101213.13;5010256;28;20071;-71
2022/06/09 07:21:29;;;;;;;25.80;9.40;;;;;;;14.81;95.29;101223.00;5006470;28;20046;-72
2022/06/09 07:23:55;;;;;;;20.83;8.63;;;;;;;14.83;95.01;101229.09;5027307;28;20473;-71
2022/06/09 07:26:20;;;;;;;14.43;7.18;;;;;;;14.89;94.89;101225.97;5013911;28;20049;-72
2022/06/09 07:28:46;;;;;;;18.27;7.35;;;;;;;14.96;95.62;101225.34;5031926;28;20025;-72
2022/06/09 07:31:11;;;;;;;10.85;4.50;;;;;;;14.99;92.56;101232.31;5012940;28;20029;-72
2022/06/09 07:33:38;;;;;;;7.47;4.10;;;;;;;14.94;89.85;101221.97;5014758;28;20370;-72
2022/06/09 07:36:07;;;;;;;8.10;3.65;;;;;;;15.04;88.17;101231.97;5032896;28;20033;-72
2022/06/09 07:38:33;;;;;;;8.73;3.73;;;;;;;15.11;88.08;101228.69;5032699;28;20430;-72
2022/06/09 07:40:58;;;;;;;7.65;3.50;;;;;;;15.30;87.65;101230.00;5014675;28;20021;-72
2022/06/09 07:43:24;;;;;;;7.47;3.53;;;;;;;15.40;87.10;101228.31;4998288;28;20034;-72
2022/06/09 07:45:50;;;;;;;9.73;4.40;;;;;;;15.42;86.85;101232.56;5014573;28;20061;-72
2022/06/09 07:48:19;;;;;;;8.55;3.50;;;;;;;15.50;88.21;101231.09;5011815;28;20112;-72
2022/06/09 07:50:46;;;;;;;6.93;3.95;;;;;;;15.52;87.50;101240.75;5032038;28;20052;-72
2022/06/09 07:53:14;;;;;;;7.40;3.53;;;;;;;15.58;87.48;101247.47;5014019;28;20029;-72
2022/06/09 07:55:39;;;;;;;5.93;3.10;;;;;;;15.66;86.42;101240.53;4997985;28;20033;-72
2022/06/09 07:58:05;;;;;;;7.60;3.38;;;;;;;15.75;84.79;101255.09;5014334;28;20045;-71
2022/06/09 08:00:31;;;;;;;5.57;3.08;;;;;;;15.88;86.01;101244.22;5032336;28;20059;-72
2022/06/09 08:03:03;;;;;;;7.88;3.13;;;;;;;16.09;85.88;101257.78;5031936;28;20377;-72
2022/06/09 08:05:29;;;;;;;8.05;3.13;;;;;;;16.20;85.71;101247.03;5009359;28;20167;-72
2022/06/09 08:07:55;;;;;;;7.07;3.17;;;;;;;16.37;84.28;101261.78;5023908;28;20029;-72
2022/06/09 08:10:24;;;;;;;6.72;2.65;;;;;;;16.35;83.65;101253.88;5011694;28;20087;-72
2022/06/09 08:12:51;;;;;;;5.90;2.78;;;;;;;16.42;82.84;101264.94;5029573;28;20309;-72
2022/06/09 08:15:20;;;;;;;4.68;2.63;;;;;;;16.50;83.55;101267.00;5028922;28;20436;-72
2022/06/09 08:17:46;;;;;;;7.13;2.78;;;;;;;16.43;80.39;101260.44;5022536;28;20071;-72
2022/06/09 08:20:12;;;;;;;5.43;2.90;;;;;;;16.48;80.58;101271.66;5030855;28;20519;-72
2022/06/09 08:22:40;;;;;;;5.43;2.97;;;;;;;16.51;80.21;101274.94;5029180;28;20293;-72
2022/06/09 08:25:08;;;;;;;5.03;2.30;;;;;;;16.47;80.00;101283.34;5031111;28;20034;-71
2022/06/09 08:27:35;;;;;;;5.13;2.40;;;;;;;16.48;80.69;101275.19;5023956;28;20030;-72
2022/06/09 08:30:02;;;;;;;8.27;2.88;;;;;;;16.56;81.63;101282.63;5007454;28;20041;-72
2022/06/09 08:32:28;;;;;;;5.63;2.47;;;;;;;16.65;79.69;101291.75;5024938;28;20066;-71
2022/06/09 08:34:56;;;;;;;5.93;2.40;;;;;;;16.61;78.39;101290.31;4997387;28;20108;-72
2022/06/09 08:37:22;;;;;;;6.00;1.97;;;;;;;16.53;78.69;101291.78;5031693;28;20049;-72
2022/06/09 08:39:47;;;;;;;5.25;2.47;;;;;;;16.66;82.04;101296.16;5030942;28;20029;-72
2022/06/09 08:42:42;;;;;;;7.32;2.58;;;;;;;16.78;82.04;101297.88;5031446;28;20025;-72
2022/06/09 08:45:17;;;;;;;10.35;2.70;;;;;;;17.07;81.91;101303.53;5013267;28;20487;-72
2022/06/09 08:47:48;;;;;;;5.72;2.33;;;;;;;17.22;78.44;101298.69;5031287;28;20038;-72
2022/06/09 08:50:27;;;;;;;5.22;2.50;;;;;;;17.25;77.73;101312.72;5031081;28;20025;-71
2022/06/09 08:53:01;;;;;;;4.80;2.17;;;;;;;17.22;76.56;101321.06;5031389;28;20029;-72
2022/06/09 08:55:32;;;;;;;3.38;2.10;;;;;;;17.28;76.75;101306.25;5031776;28;20480;-72
2022/06/09 08:58:05;;;;;;;6.88;2.03;;;;;;;17.24;77.68;101315.56;5012918;28;20029;-73
2022/06/09 09:00:38;;;;;;;4.18;1.98;;;;;;;17.28;78.21;101319.69;5030323;28;20033;-72
2022/06/09 09:03:15;;;;;;;3.35;1.90;;;;;;;17.14;76.96;101323.53;5031083;28;20029;-72
2022/06/09 09:06:20;;;;;;;4.03;2.30;;;;;;;17.17;76.50;101327.78;5031083;28;20256;-73
2022/06/09 09:08:46;;;;;;;8.05;2.80;;;;;;;17.14;77.56;101333.44;5020551;28;20095;-72
2022/06/09 09:11:48;;;;;;;10.15;3.28;;;;;;;17.22;77.53;101328.28;4995007;28;20037;-73
2022/06/09 09:14:19;;;;;;;6.18;3.30;;;;;;;17.20;78.01;101332.91;5030698;28;20021;-72
2022/06/09 09:17:09;;;;;;;6.07;3.67;;;;;;;17.21;78.00;101326.56;5030998;28;20108;-72
2022/06/09 09:19:45;;;;;;;7.38;2.90;;;;;;;17.12;76.65;101340.75;5026776;28;20100;-72
2022/06/09 09:22:11;;;;;;;6.07;2.70;;;;;;;17.08;77.80;101339.31;5029166;28;20492;-73
2022/06/09 09:24:52;;;;;;;5.03;2.75;;;;;;;17.02;77.44;101337.97;5030769;28;20029;-73
2022/06/09 09:27:26;;;;;;;4.45;2.60;;;;;;;16.93;77.37;101346.81;5030757;28;20052;-73
2022/06/09 09:30:12;;;;;;;8.73;3.25;;;;;;;16.92;77.60;101342.41;5029749;28;20124;-73
2022/06/09 09:32:42;;;;;;;5.43;3.30;;;;;;;17.00;78.39;101351.56;5012580;28;20033;-73
2022/06/09 09:35:18;;;;;;;7.00;3.58;;;;;;;17.00;79.62;101342.63;5011491;28;20018;-73
2022/06/09 09:37:47;;;;;;;9.38;3.78;;;;;;;17.03;78.63;101353.16;5029043;28;20365;-73
2022/06/09 09:40:22;;;;;;;6.38;4.20;;;;;;;17.05;78.85;101356.53;5030291;28;20024;-73
2022/06/09 09:42:49;;;;;;;9.27;3.85;;;;;;;17.00;78.95;101366.81;5029700;28;20033;-73
2022/06/09 09:45:20;;;;;;;7.60;3.28;;;;;;;16.97;77.61;101367.94;5011457;28;20037;-72
2022/06/09 09:47:58;;;;;;;6.97;3.92;;;;;;;16.98;78.16;101361.56;5030732;28;20021;-72
2022/06/09 09:50:53;;;;;;;9.20;5.03;;;;;;;17.11;78.63;101372.16;5030759;28;20032;-72
2022/06/09 09:53:19;;;;;;;7.53;4.65;;;;;;;17.32;79.52;101371.38;5030205;28;20152;-73
2022/06/09 09:55:50;;;;;;;8.73;5.10;;;;;;;17.82;78.37;101363.59;5015282;28;20061;-73
2022/06/09 09:58:21;;;;;;;5.60;4.57;;;;;;;18.38;76.90;101374.84;5034088;28;20026;-73
2022/06/09 10:01:09;;;;;;;7.20;4.80;;;;;;;18.81;73.26;101373.75;5033165;28;20076;-73
2022/06/09 10:09:50;;;;;;;9.90;3.80;;;;;;;18.01;76.75;101384.41;5024374;28;20440;-72
2022/06/09 10:12:28;;;;;;;8.97;3.90;;;;;;;17.89;76.79;101392.53;5033149;28;20031;-72
2022/06/09 10:15:09;;;;;;;9.10;4.20;;;;;;;17.62;79.30;101417.22;5031937;28;20371;-73
2022/06/09 10:17:41;;;;;;;6.18;4.53;;;;;;;17.40;81.54;101410.09;5033146;28;20283;-73
2022/06/09 10:20:21;;;;;;;6.43;3.67;;;;;;;17.32;81.79;101411.69;5015106;28;20152;-72
2022/06/09 10:23:13;;;;;;;7.88;4.00;;;;;;;17.33;81.37;101416.13;5033231;28;20028;-73
2022/06/09 10:26:00;;;;;;;10.02;4.80;;;;;;;17.27;81.92;101412.09;5014921;28;20182;-73
2022/06/09 10:28:36;;;;;;;7.95;5.50;;;;;;;17.21;83.63;101416.13;5012908;28;20029;-73
2022/06/09 10:31:10;;;;;;;11.00;5.72;;;;;;;17.34;85.33;101417.81;5023699;28;20124;-72
2022/06/09 10:34:02;;;;;;;9.45;6.28;;;;;;;17.78;86.59;101413.28;5028924;28;20032;-72
2022/06/09 10:36:34;;;;;;;9.73;6.90;;;;;;;18.22;87.44;101406.78;5025931;28;20061;-73
2022/06/09 10:39:11;;;;;;;6.47;5.80;;;;;;;18.75;84.03;101416.56;5032065;28;20044;-73
2022/06/09 10:42:03;;;;;;;12.02;6.30;;;;;;;19.13;80.54;101415.00;5032717;28;20426;-73
2022/06/09 10:44:44;;;;;;;14.88;6.80;;;;;;;19.65;77.53;101421.91;5031533;28;20049;-73
2022/06/09 10:56:55;;;;;;;6.80;5.22;;;;;;;20.39;68.07;101429.34;4969263;28;20053;-73
2022/06/09 10:59:33;;;;;;;8.02;5.50;;;;;;;20.33;70.98;101432.63;5032287;28;20025;-73
2022/06/09 11:02:11;;;;;;;6.15;4.88;;;;;;;20.35;70.91;101429.75;5014957;28;20030;-73
2022/06/09 11:04:37;;;;;;;7.53;4.45;;;;;;;20.40;69.31;101427.47;5033164;28;20049;-73
2022/06/09 11:07:12;;;;;;;7.30;3.42;;;;;;;20.67;67.77;101437.53;5032002;28;20068;-73
2022/06/09 11:09:59;;;;;;;5.95;2.75;;;;;;;20.69;63.84;101435.53;5032458;28;20029;-73
2022/06/09 11:12:39;;;;;;;4.70;2.72;;;;;;;20.57;65.10;101437.56;5031632;28;20091;-73
2022/06/09 11:15:23;;;;;;;9.85;3.42;;;;;;;20.81;63.77;101450.56;5032564;28;20021;-73
2022/06/09 11:18:00;;;;;;;8.93;3.42;;;;;;;21.07;64.38;101455.28;5013377;28;20017;-73
2022/06/09 11:20:48;;;;;;;8.10;2.80;;;;;;;21.36;61.40;101456.97;5030035;28;20448;-74
2022/06/09 11:23:22;;;;;;;7.18;3.10;;;;;;;20.94;62.92;101449.34;5032766;28;20495;-74
2022/06/09 11:25:53;;;;;;;7.93;3.28;;;;;;;20.42;62.51;101456.06;5031601;28;20377;-74
2022/06/09 11:28:30;;;;;;;15.52;3.30;;;;;;;19.99;64.05;101458.41;5029900;28;20017;-74
2022/06/09 11:31:34;;;;;;;10.13;3.53;;;;;;;19.67;63.82;101460.38;5024985;28;20029;-73
2022/06/09 11:34:26;;;;;;;7.85;3.03;;;;;;;19.36;65.94;101453.38;4979987;28;20033;-74
2022/06/09 11:37:07;;;;;;;7.22;3.13;;;;;;;19.20;65.07;101462.81;5012634;28;20388;-73
2022/06/09 11:39:57;;;;;;;10.15;3.25;;;;;;;19.10;64.30;101475.44;5013911;28;20064;-73
2022/06/09 11:42:41;;;;;;;6.32;3.45;;;;;;;18.93;65.11;101478.78;5011692;28;20033;-73
2022/06/09 11:45:48;;;;;;;7.15;3.17;;;;;;;18.94;66.55;101475.06;5012189;28;20033;-73
2022/06/09 11:48:25;;;;;;;9.13;2.90;;;;;;;18.82;66.17;101480.59;4949494;29;20067;-73
2022/06/09 11:50:53;;;;;;;12.93;3.70;;;;;;;18.74;65.16;101480.41;4935023;29;20159;-73
2022/06/09 11:53:26;;;;;;;13.13;2.88;;;;;;;18.74;65.53;101491.19;4997437;28;20572;-73
2022/06/09 11:56:33;;;;;;;9.20;3.08;;;;;;;18.81;67.09;101491.50;5030576;28;20021;-73
2022/06/09 11:59:13;;;;;;;6.63;3.25;;;;;;;18.75;65.31;101497.41;5008380;28;20033;-73
2022/06/09 12:01:39;;;;;;;8.73;2.90;;;;;;;18.71;66.78;101495.97;5031471;28;20033;-73